Time;durP1;ratioP1;P1;durP2;ratioP2;P2;SDS_P1;SDS_P2;PMS_P1;PMS_P2;Temp;Humidity;BMP_temperature;BMP_pressure;BME280_temperature;BME280_humidity;BME280_pressure;Samples;Min_cycle;Max_cycle;Signal;HPM_P1;HPM_P2
2022/11/19 00:01:21;;;;;;;23.37;13.93;;;;;;;;;;5055174;28;20583;-43
2022/11/19 00:03:48;;;;;;;23.77;13.60;;;;;;;;;;5055017;28;20204;-43
2022/11/19 00:06:24;;;;;;;20.40;13.50;;;;;;;;;;5055110;28;20208;-42
2022/11/19 00:08:51;;;;;;;23.13;13.80;;;;;;;;;;5055111;28;20227;-43
2022/11/19 00:14:11;;;;;;;24.03;13.90;;;;;;;;;;5054842;28;20273;-43
2022/11/19 00:16:39;;;;;;;20.23;13.43;;;;;;;;;;5054928;28;20223;-43
2022/11/19 00:19:06;;;;;;;22.67;14.23;;;;;;;;;;5053707;28;20247;-43
2022/11/19 00:21:33;;;;;;;25.60;13.07;;;;;;;;;;5054650;28;20542;-43
2022/11/19 00:23:59;;;;;;;21.70;13.17;;;;;;;;;;5055085;28;20214;-43
2022/11/19 00:26:27;;;;;;;20.90;12.67;;;;;;;;;;5054547;28;20216;-43
2022/11/19 00:28:54;;;;;;;21.30;13.83;;;;;;;;;;5054789;28;20272;-46
2022/11/19 00:31:22;;;;;;;21.83;12.63;;;;;;;;;;5054572;28;20204;-43
2022/11/19 00:33:53;;;;;;;20.93;13.37;;;;;;;;;;5054687;28;20203;-43
2022/11/19 00:36:21;;;;;;;23.17;14.43;;;;;;;;;;5054875;28;20184;-44
2022/11/19 00:38:48;;;;;;;22.07;14.43;;;;;;;;;;5054358;28;20240;-46
2022/11/19 00:41:15;;;;;;;23.03;14.57;;;;;;;;;;5054679;28;20208;-44
2022/11/19 00:43:51;;;;;;;23.30;12.87;;;;;;;;;;5054432;28;20203;-44
2022/11/19 00:46:19;;;;;;;21.50;13.10;;;;;;;;;;5054448;28;20613;-43
2022/11/19 00:48:47;;;;;;;23.50;15.07;;;;;;;;;;5054729;28;20204;-43
2022/11/19 00:51:16;;;;;;;24.93;12.47;;;;;;;;;;5054781;28;20238;-43
2022/11/19 00:53:43;;;;;;;22.87;13.90;;;;;;;;;;5054341;28;20212;-43
2022/11/19 00:56:12;;;;;;;21.73;14.73;;;;;;;;;;5054381;28;20200;-43
2022/11/19 00:58:39;;;;;;;24.27;13.77;;;;;;;;;;5054525;28;20241;-43
2022/11/19 01:01:07;;;;;;;23.13;14.13;;;;;;;;;;5054584;28;20262;-43
2022/11/19 01:03:35;;;;;;;23.83;14.03;;;;;;;;;;5053672;28;20223;-43
2022/11/19 01:06:02;;;;;;;26.77;15.17;;;;;;;;;;5054496;28;20212;-44
2022/11/19 01:08:29;;;;;;;23.73;13.87;;;;;;;;;;5054447;28;20551;-46
2022/11/19 01:11:12;;;;;;;23.13;14.90;;;;;;;;;;5054543;28;20196;-43
2022/11/19 01:13:40;;;;;;;20.93;13.70;;;;;;;;;;5054384;28;20295;-44
2022/11/19 01:16:10;;;;;;;22.23;14.40;;;;;;;;;;5054401;28;20273;-43
2022/11/19 01:18:38;;;;;;;24.80;14.10;;;;;;;;;;5053315;28;20224;-43
2022/11/19 01:21:06;;;;;;;19.70;12.97;;;;;;;;;;5054321;28;20208;-44
2022/11/19 01:23:33;;;;;;;24.37;14.30;;;;;;;;;;5054271;28;20269;-44
2022/11/19 01:26:00;;;;;;;25.93;14.47;;;;;;;;;;5054232;28;20204;-44
2022/11/19 01:28:28;;;;;;;24.20;14.17;;;;;;;;;;5054036;28;20558;-43
2022/11/19 01:30:55;;;;;;;22.90;13.10;;;;;;;;;;5054118;28;20196;-44
2022/11/19 01:33:22;;;;;;;21.67;13.07;;;;;;;;;;5057866;28;20333;-43
2022/11/19 01:35:56;;;;;;;21.07;13.17;;;;;;;;;;5057519;28;20637;-44
2022/11/19 01:38:23;;;;;;;24.97;13.93;;;;;;;;;;5057435;28;20228;-43
2022/11/19 01:40:50;;;;;;;24.63;14.03;;;;;;;;;;5057728;28;20211;-44
2022/11/19 01:43:17;;;;;;;20.57;13.27;;;;;;;;;;5057665;28;20223;-45
2022/11/19 01:45:47;;;;;;;24.50;13.97;;;;;;;;;;5057567;28;20215;-44
2022/11/19 01:48:26;;;;;;;22.07;12.97;;;;;;;;;;5057599;28;20189;-44
2022/11/19 01:50:57;;;;;;;23.17;13.47;;;;;;;;;;5057669;28;20605;-44
2022/11/19 01:53:27;;;;;;;21.23;13.03;;;;;;;;;;5056724;28;20286;-43
2022/11/19 01:55:55;;;;;;;20.97;12.87;;;;;;;;;;5057175;28;20207;-44
2022/11/19 01:58:23;;;;;;;23.07;13.67;;;;;;;;;;5056616;28;20232;-44
2022/11/19 02:00:50;;;;;;;19.60;12.33;;;;;;;;;;5056418;28;20208;-44
2022/11/19 02:03:17;;;;;;;20.10;12.83;;;;;;;;;;5057393;28;20231;-44
2022/11/19 02:05:45;;;;;;;19.50;12.67;;;;;;;;;;5057724;28;20200;-43
2022/11/19 02:08:35;;;;;;;21.70;13.93;;;;;;;;;;5057047;28;20238;-44
2022/11/19 02:11:15;;;;;;;21.97;12.33;;;;;;;;;;5057052;28;20641;-44
2022/11/19 02:13:48;;;;;;;21.33;13.03;;;;;;;;;;5057255;28;20196;-44
2022/11/19 02:16:57;;;;;;;19.67;12.50;;;;;;;;;;5056318;28;20631;-44
2022/11/19 02:20:01;;;;;;;20.17;12.37;;;;;;;;;;5048784;28;20847;-44
2022/11/19 02:22:56;;;;;;;22.37;13.07;;;;;;;;;;5055831;28;20527;-43
2022/11/19 02:25:29;;;;;;;21.90;12.87;;;;;;;;;;5056833;28;20637;-44
2022/11/19 02:28:09;;;;;;;19.37;12.07;;;;;;;;;;5055883;28;20196;-43
2022/11/19 02:30:41;;;;;;;19.77;12.90;;;;;;;;;;5056010;28;20597;-44
2022/11/19 02:33:16;;;;;;;18.37;12.00;;;;;;;;;;5056030;28;20215;-43
2022/11/19 02:35:44;;;;;;;21.57;12.43;;;;;;;;;;5055686;28;20196;-44
2022/11/19 02:38:17;;;;;;;20.17;12.63;;;;;;;;;;5055762;28;20219;-44
2022/11/19 02:40:54;;;;;;;19.53;12.30;;;;;;;;;;5056849;28;20204;-43
2022/11/19 02:43:24;;;;;;;22.40;12.53;;;;;;;;;;5055795;28;20192;-44
2022/11/19 02:46:12;;;;;;;22.27;12.37;;;;;;;;;;5055914;28;20210;-44
2022/11/19 02:48:44;;;;;;;20.63;12.63;;;;;;;;;;5055571;28;20644;-43
2022/11/19 02:51:11;;;;;;;20.40;12.00;;;;;;;;;;5056215;28;20633;-44
2022/11/19 02:53:38;;;;;;;20.70;13.50;;;;;;;;;;5055505;28;20218;-43
2022/11/19 02:56:47;;;;;;;22.90;13.10;;;;;;;;;;5056259;28;20208;-43
2022/11/19 03:04:48;;;;;;;20.43;13.33;;;;;;;;;;5055482;28;20212;-44
2022/11/19 03:07:17;;;;;;;20.80;13.23;;;;;;;;;;5055873;28;20208;-44
2022/11/19 03:09:54;;;;;;;20.53;13.80;;;;;;;;;;5055746;28;20196;-43
2022/11/19 03:12:49;;;;;;;23.13;14.27;;;;;;;;;;5055496;28;20218;-43
2022/11/19 03:18:16;;;;;;;22.50;14.00;;;;;;;;;;5056206;28;20184;-43
2022/11/19 03:20:59;;;;;;;21.87;13.53;;;;;;;;;;5056023;28;20207;-43
2022/11/19 03:23:31;;;;;;;22.77;14.63;;;;;;;;;;5055325;28;20208;-44
2022/11/19 03:26:23;;;;;;;22.60;13.43;;;;;;;;;;5055631;28;20625;-43
2022/11/19 03:28:51;;;;;;;21.83;13.60;;;;;;;;;;5056372;28;20214;-44
2022/11/19 03:31:20;;;;;;;24.20;13.50;;;;;;;;;;5054822;28;20215;-44
2022/11/19 03:33:49;;;;;;;25.57;14.63;;;;;;;;;;5054903;28;20219;-44
2022/11/19 03:36:20;;;;;;;26.93;14.90;;;;;;;;;;5055511;28;20204;-43
2022/11/19 03:38:54;;;;;;;27.43;15.03;;;;;;;;;;5055417;28;20603;-43
2022/11/19 03:41:23;;;;;;;22.77;14.10;;;;;;;;;;5056160;28;20254;-46
2022/11/19 03:43:56;;;;;;;24.03;14.27;;;;;;;;;;5054925;28;20204;-43
2022/11/19 03:46:25;;;;;;;23.77;15.13;;;;;;;;;;5055528;28;20203;-44
2022/11/19 03:48:54;;;;;;;23.63;13.47;;;;;;;;;;5055232;28;20212;-43
2022/11/19 03:51:28;;;;;;;24.60;13.87;;;;;;;;;;5054186;28;20212;-44
2022/11/19 03:53:55;;;;;;;24.33;14.80;;;;;;;;;;5054181;28;20202;-43
2022/11/19 03:56:25;;;;;;;24.03;13.83;;;;;;;;;;5055220;28;20231;-44
2022/11/19 03:58:52;;;;;;;23.60;14.40;;;;;;;;;;5054181;28;20219;-43
2022/11/19 04:01:20;;;;;;;22.10;13.87;;;;;;;;;;5054339;28;20200;-44
2022/11/19 04:04:34;;;;;;;22.83;12.80;;;;;;;;;;5054998;28;20287;-43
2022/11/19 04:06:34;;;;;;;21.10;12.70;;;;;;;;;;5054774;28;20207;-44
2022/11/19 04:09:00;;;;;;;23.67;13.60;;;;;;;;;;5054875;28;20239;-44
2022/11/19 04:11:28;;;;;;;24.70;14.60;;;;;;;;;;5054914;28;20261;-43
2022/11/19 04:13:54;;;;;;;23.83;13.50;;;;;;;;;;5054950;28;20199;-46
2022/11/19 04:16:21;;;;;;;23.00;13.17;;;;;;;;;;5054677;28;20545;-43
2022/11/19 04:18:48;;;;;;;22.43;13.90;;;;;;;;;;5054874;28;20224;-43
2022/11/19 04:21:15;;;;;;;23.33;14.63;;;;;;;;;;5054809;28;20207;-43
2022/11/19 04:23:42;;;;;;;24.47;14.80;;;;;;;;;;5055135;28;20207;-44
2022/11/19 04:26:09;;;;;;;22.20;12.73;;;;;;;;;;5054786;28;20216;-43
2022/11/19 04:28:36;;;;;;;21.43;12.87;;;;;;;;;;5054026;28;20210;-44
2022/11/19 04:31:03;;;;;;;21.97;12.90;;;;;;;;;;5054592;28;20211;-43
2022/11/19 04:33:30;;;;;;;23.17;13.47;;;;;;;;;;5053776;28;20203;-43
2022/11/19 04:35:57;;;;;;;20.97;12.50;;;;;;;;;;5054266;28;20625;-43
2022/11/19 04:38:24;;;;;;;26.20;13.50;;;;;;;;;;5054172;28;20220;-43
2022/11/19 04:40:51;;;;;;;19.63;12.30;;;;;;;;;;5052977;28;20307;-45
2022/11/19 04:43:18;;;;;;;19.67;12.40;;;;;;;;;;5054958;28;20284;-44
2022/11/19 04:45:45;;;;;;;24.83;13.27;;;;;;;;;;5054263;28;20211;-45
2022/11/19 04:48:12;;;;;;;18.93;11.97;;;;;;;;;;5054688;28;20268;-44
2022/11/19 04:50:40;;;;;;;19.40;12.60;;;;;;;;;;5054269;28;20657;-44
2022/11/19 04:53:07;;;;;;;23.17;13.90;;;;;;;;;;5054378;28;20211;-46
2022/11/19 04:55:35;;;;;;;21.97;12.57;;;;;;;;;;5054525;28;20196;-43
2022/11/19 04:58:01;;;;;;;22.80;13.00;;;;;;;;;;5054934;28;20200;-43
2022/11/19 05:00:28;;;;;;;21.30;12.60;;;;;;;;;;5054445;28;20239;-43
2022/11/19 05:02:55;;;;;;;20.80;12.43;;;;;;;;;;5054309;28;20204;-44
2022/11/19 05:05:22;;;;;;;22.30;13.17;;;;;;;;;;5054554;28;20215;-44
2022/11/19 05:07:49;;;;;;;23.00;12.87;;;;;;;;;;5057224;28;20248;-44
2022/11/19 05:10:16;;;;;;;22.50;14.30;;;;;;;;;;5058083;28;20254;-44
2022/11/19 05:12:43;;;;;;;18.63;12.43;;;;;;;;;;5058106;28;20212;-44
2022/11/19 05:15:10;;;;;;;20.03;11.90;;;;;;;;;;5058221;28;20536;-44
2022/11/19 05:17:37;;;;;;;22.83;13.80;;;;;;;;;;5057082;28;20287;-43
2022/11/19 05:20:04;;;;;;;23.17;13.33;;;;;;;;;;5057944;28;20232;-45
2022/11/19 05:22:31;;;;;;;22.50;12.57;;;;;;;;;;5054494;28;20216;-45
2022/11/19 05:24:58;;;;;;;20.17;12.43;;;;;;;;;;5048094;28;20223;-44
2022/11/19 05:27:25;;;;;;;22.93;13.63;;;;;;;;;;5045558;28;20205;-44
2022/11/19 05:29:52;;;;;;;21.37;12.43;;;;;;;;;;5054995;28;20196;-48
2022/11/19 05:32:19;;;;;;;19.43;12.73;;;;;;;;;;5051019;28;20321;-46
2022/11/19 05:34:46;;;;;;;25.20;13.40;;;;;;;;;;5047496;28;20200;-43
2022/11/19 05:37:13;;;;;;;23.37;14.10;;;;;;;;;;5046174;28;20286;-44
2022/11/19 05:39:40;;;;;;;20.97;13.53;;;;;;;;;;5044930;28;20374;-44
2022/11/19 05:42:07;;;;;;;19.77;12.50;;;;;;;;;;5045130;28;20232;-46
2022/11/19 05:44:34;;;;;;;23.87;13.97;;;;;;;;;;5046141;28;20214;-43
2022/11/19 05:47:01;;;;;;;22.83;13.73;;;;;;;;;;5047060;28;20292;-44
2022/11/19 05:49:28;;;;;;;23.63;13.63;;;;;;;;;;5045219;28;20201;-44
2022/11/19 05:51:55;;;;;;;22.40;14.30;;;;;;;;;;5046047;28;20291;-43
2022/11/19 05:54:22;;;;;;;21.43;13.23;;;;;;;;;;5050727;28;20204;-45
2022/11/19 05:56:49;;;;;;;21.13;12.93;;;;;;;;;;5047676;28;20538;-50
2022/11/19 05:59:16;;;;;;;21.60;13.00;;;;;;;;;;5045502;28;20782;-44
2022/11/19 06:01:43;;;;;;;20.90;12.67;;;;;;;;;;5046680;28;20287;-44
2022/11/19 06:04:11;;;;;;;22.57;13.37;;;;;;;;;;5044204;28;20204;-43
2022/11/19 06:06:37;;;;;;;21.33;13.70;;;;;;;;;;5046386;28;20524;-43
2022/11/19 06:09:04;;;;;;;21.43;13.77;;;;;;;;;;5046732;28;20219;-47
2022/11/19 06:12:04;;;;;;;22.00;13.40;;;;;;;;;;5047092;28;20189;-44
2022/11/19 06:14:31;;;;;;;20.00;12.53;;;;;;;;;;5044977;28;20630;-44
2022/11/19 06:16:59;;;;;;;20.87;13.73;;;;;;;;;;5044434;28;20219;-45
2022/11/19 06:19:26;;;;;;;20.13;12.60;;;;;;;;;;5046183;28;20216;-44
2022/11/19 06:21:53;;;;;;;21.17;12.97;;;;;;;;;;5052270;28;20231;-44
2022/11/19 06:24:20;;;;;;;20.60;13.20;;;;;;;;;;5056333;28;20196;-43
2022/11/19 06:26:47;;;;;;;19.23;12.10;;;;;;;;;;5055316;28;20204;-44
2022/11/19 06:29:15;;;;;;;19.40;12.30;;;;;;;;;;5043969;28;20228;-43
2022/11/19 06:31:43;;;;;;;19.90;12.53;;;;;;;;;;5055839;28;20228;-45
2022/11/19 06:34:10;;;;;;;22.93;13.43;;;;;;;;;;5043099;28;20293;-44
2022/11/19 06:36:37;;;;;;;22.10;12.80;;;;;;;;;;5047049;28;20231;-48
2022/11/19 06:39:10;;;;;;;23.03;13.40;;;;;;;;;;5045006;28;20301;-44
2022/11/19 06:41:37;;;;;;;22.37;13.17;;;;;;;;;;5045378;28;20243;-44
2022/11/19 06:44:04;;;;;;;24.93;13.07;;;;;;;;;;5050608;28;20228;-43
2022/11/19 06:46:31;;;;;;;22.37;12.17;;;;;;;;;;5056194;28;20231;-45
2022/11/19 06:48:58;;;;;;;19.33;12.20;;;;;;;;;;5053641;28;20232;-46
2022/11/19 06:51:25;;;;;;;20.97;12.60;;;;;;;;;;5055067;28;20569;-43
2022/11/19 06:53:52;;;;;;;22.27;12.97;;;;;;;;;;5055060;28;20254;-42
2022/11/19 06:56:19;;;;;;;21.10;12.40;;;;;;;;;;5055393;28;20585;-43
2022/11/19 06:58:46;;;;;;;21.03;12.77;;;;;;;;;;5054859;28;20262;-42
2022/11/19 07:01:15;;;;;;;20.53;12.87;;;;;;;;;;5054218;28;20599;-44
2022/11/19 07:03:42;;;;;;;18.93;12.67;;;;;;;;;;5052603;28;20285;-49
2022/11/19 07:06:09;;;;;;;21.20;12.77;;;;;;;;;;5047755;28;20303;-45
2022/11/19 07:08:38;;;;;;;21.60;13.33;;;;;;;;;;5046850;28;20294;-47
2022/11/19 07:11:24;;;;;;;19.73;12.93;;;;;;;;;;5055230;28;20607;-44
2022/11/19 07:13:59;;;;;;;22.50;12.97;;;;;;;;;;5054332;28;20235;-44
2022/11/19 07:16:30;;;;;;;22.27;12.13;;;;;;;;;;5054661;28;20231;-43
2022/11/19 07:18:58;;;;;;;22.43;13.50;;;;;;;;;;5054682;28;20683;-45
2022/11/19 07:21:26;;;;;;;20.73;12.93;;;;;;;;;;5054981;28;20667;-45
2022/11/19 07:23:54;;;;;;;21.37;12.67;;;;;;;;;;5054388;28;20235;-44
2022/11/19 07:26:21;;;;;;;24.03;14.40;;;;;;;;;;5055347;28;20259;-44
2022/11/19 07:28:49;;;;;;;21.27;13.40;;;;;;;;;;5053431;28;20780;-43
2022/11/19 07:31:16;;;;;;;22.87;13.97;;;;;;;;;;5053052;28;20234;-45
2022/11/19 07:33:43;;;;;;;22.30;13.57;;;;;;;;;;5054106;28;20665;-45
2022/11/19 07:36:11;;;;;;;20.00;12.43;;;;;;;;;;5053898;28;20231;-44
2022/11/19 07:38:45;;;;;;;19.10;12.57;;;;;;;;;;5045425;28;20236;-44
2022/11/19 07:43:57;;;;;;;21.23;12.53;;;;;;;;;;5045360;28;20230;-44
2022/11/19 07:46:24;;;;;;;20.63;12.03;;;;;;;;;;5054638;28;20232;-43
2022/11/19 07:48:55;;;;;;;19.97;12.07;;;;;;;;;;5054415;28;20771;-44
2022/11/19 07:51:23;;;;;;;37.00;17.27;;;;;;;;;;5054810;28;20230;-43
2022/11/19 07:53:51;;;;;;;103.13;32.97;;;;;;;;;;5051938;28;20224;-50
2022/11/19 07:56:18;;;;;;;38.77;17.73;;;;;;;;;;5053119;28;20230;-45
2022/11/19 07:58:45;;;;;;;51.60;22.33;;;;;;;;;;5052878;28;20589;-45
2022/11/19 08:01:17;;;;;;;49.63;23.17;;;;;;;;;;5048957;28;20240;-45
2022/11/19 08:03:48;;;;;;;69.10;27.83;;;;;;;;;;5051075;28;20227;-46
2022/11/19 08:06:24;;;;;;;25.67;14.67;;;;;;;;;;5054327;28;20233;-46
2022/11/19 08:08:51;;;;;;;40.50;21.27;;;;;;;;;;5053696;28;20247;-44
2022/11/19 08:11:18;;;;;;;17.37;11.97;;;;;;;;;;5054130;28;20250;-44
2022/11/19 08:13:45;;;;;;;19.40;12.10;;;;;;;;;;5050659;28;20220;-45
2022/11/19 08:18:10;;;;;;;21.07;11.10;;;;;;;;;;5053843;28;20228;-45
2022/11/19 08:19:08;;;;;;;18.97;11.07;;;;;;;;;;5054169;28;20232;-48
2022/11/19 08:21:38;;;;;;;20.20;11.47;;;;;;;;;;5053768;28;20305;-46
2022/11/19 08:24:06;;;;;;;21.70;12.77;;;;;;;;;;5054571;28;20659;-45
2022/11/19 08:26:32;;;;;;;20.13;12.13;;;;;;;;;;5054712;28;20208;-49
2022/11/19 08:29:00;;;;;;;17.70;11.57;;;;;;;;;;5053773;28;20249;-45
2022/11/19 08:31:26;;;;;;;17.67;11.60;;;;;;;;;;5053944;28;20208;-47
2022/11/19 08:33:54;;;;;;;19.60;11.10;;;;;;;;;;5054259;28;20196;-45
2022/11/19 08:36:20;;;;;;;18.43;11.70;;;;;;;;;;5053593;28;20204;-44
2022/11/19 08:38:47;;;;;;;17.30;11.93;;;;;;;;;;5052056;28;20210;-45
2022/11/19 08:44:00;;;;;;;18.07;11.13;;;;;;;;;;5057389;28;20192;-45
2022/11/19 08:46:27;;;;;;;18.53;11.97;;;;;;;;;;5057068;28;20200;-46
2022/11/19 08:48:55;;;;;;;20.23;12.53;;;;;;;;;;5057152;28;20285;-46
2022/11/19 08:51:21;;;;;;;16.37;10.80;;;;;;;;;;5058165;28;20233;-45
2022/11/19 08:53:51;;;;;;;17.40;10.87;;;;;;;;;;5058189;28;20218;-46
2022/11/19 08:56:18;;;;;;;18.30;11.47;;;;;;;;;;5058190;28;20213;-45
2022/11/19 08:58:46;;;;;;;17.80;11.47;;;;;;;;;;5058209;28;20196;-45
2022/11/19 09:01:14;;;;;;;19.43;12.20;;;;;;;;;;5058248;28;20234;-45
2022/11/19 09:03:42;;;;;;;18.10;11.87;;;;;;;;;;5058183;28;20200;-44
2022/11/19 09:06:09;;;;;;;18.30;11.57;;;;;;;;;;5058313;28;20211;-45
2022/11/19 09:08:36;;;;;;;16.83;10.97;;;;;;;;;;5055759;28;20282;-48
2022/11/19 09:11:11;;;;;;;17.60;11.70;;;;;;;;;;5056248;28;20211;-45
2022/11/19 09:13:38;;;;;;;19.67;12.53;;;;;;;;;;5057835;28;20613;-47
2022/11/19 09:16:06;;;;;;;17.57;11.27;;;;;;;;;;5049244;28;20209;-47
2022/11/19 09:18:37;;;;;;;19.83;11.80;;;;;;;;;;5052473;28;20262;-47
2022/11/19 09:21:06;;;;;;;21.03;11.63;;;;;;;;;;5044166;28;20278;-49
2022/11/19 09:23:34;;;;;;;19.60;12.17;;;;;;;;;;5056619;28;20230;-49
2022/11/19 09:26:03;;;;;;;18.97;12.50;;;;;;;;;;5048390;28;20243;-46
2022/11/19 09:28:31;;;;;;;18.83;11.97;;;;;;;;;;5050922;28;20239;-47
2022/11/19 09:31:00;;;;;;;20.83;12.60;;;;;;;;;;5056173;28;20235;-47
2022/11/19 09:33:28;;;;;;;21.47;13.60;;;;;;;;;;5042808;28;20235;-46
2022/11/19 09:35:55;;;;;;;20.63;12.87;;;;;;;;;;5056975;28;20647;-45
2022/11/19 09:38:22;;;;;;;23.47;13.03;;;;;;;;;;5056563;28;20231;-46
2022/11/19 09:40:54;;;;;;;20.43;13.37;;;;;;;;;;5054077;28;20239;-46
2022/11/19 09:43:36;;;;;;;19.13;12.90;;;;;;;;;;5056530;28;20216;-47
2022/11/19 09:46:18;;;;;;;22.63;13.73;;;;;;;;;;5056482;28;20326;-47
2022/11/19 09:48:45;;;;;;;21.03;13.43;;;;;;;;;;5055763;28;20227;-46
2022/11/19 09:51:17;;;;;;;21.67;13.13;;;;;;;;;;5056498;28;20732;-45
2022/11/19 09:53:53;;;;;;;21.73;12.90;;;;;;;;;;5050692;28;20216;-45
2022/11/19 09:56:33;;;;;;;21.03;13.03;;;;;;;;;;5054440;28;20238;-51
2022/11/19 09:59:05;;;;;;;20.03;12.23;;;;;;;;;;5052265;28;20526;-52
2022/11/19 10:01:33;;;;;;;19.03;12.80;;;;;;;;;;5054603;28;20266;-48
2022/11/19 10:04:00;;;;;;;20.13;13.13;;;;;;;;;;5054358;28;20242;-46
2022/11/19 10:06:29;;;;;;;19.30;12.60;;;;;;;;;;5054866;28;20293;-45
2022/11/19 10:09:22;;;;;;;22.17;13.53;;;;;;;;;;5053527;28;20240;-46
2022/11/19 10:12:14;;;;;;;22.77;13.10;;;;;;;;;;5055921;28;20220;-46
2022/11/19 10:15:03;;;;;;;22.87;13.93;;;;;;;;;;5055414;28;20212;-49
2022/11/19 10:18:06;;;;;;;21.90;14.07;;;;;;;;;;5055350;28;20224;-47
2022/11/19 10:20:58;;;;;;;25.13;14.93;;;;;;;;;;5055952;28;20243;-54
2022/11/19 10:23:34;;;;;;;25.00;14.87;;;;;;;;;;5055064;28;20232;-44
2022/11/19 10:26:04;;;;;;;21.67;13.77;;;;;;;;;;5056079;28;20564;-46
2022/11/19 10:28:35;;;;;;;28.77;16.10;;;;;;;;;;5055125;28;20220;-43
2022/11/19 10:31:08;;;;;;;25.63;14.90;;;;;;;;;;5055834;28;20243;-47
2022/11/19 10:33:44;;;;;;;39.10;18.03;;;;;;;;;;5055204;28;20245;-43
2022/11/19 10:36:27;;;;;;;24.50;15.07;;;;;;;;;;5052887;28;20242;-44
2022/11/19 10:39:00;;;;;;;37.97;17.57;;;;;;;;;;5054908;28;20680;-44
2022/11/19 10:42:02;;;;;;;31.20;15.83;;;;;;;;;;5055067;28;20316;-47
2022/11/19 10:44:40;;;;;;;34.63;16.37;;;;;;;;;;5054724;28;20691;-44
2022/11/19 10:47:14;;;;;;;32.93;16.90;;;;;;;;;;5054267;28;20220;-43
2022/11/19 10:49:41;;;;;;;38.43;16.73;;;;;;;;;;5055169;28;20310;-42
2022/11/19 10:52:23;;;;;;;43.63;18.47;;;;;;;;;;5054758;28;20232;-43
2022/11/19 10:54:53;;;;;;;42.73;19.77;;;;;;;;;;5055770;28;20611;-43
2022/11/19 10:57:20;;;;;;;37.00;19.97;;;;;;;;;;5055407;28;20238;-43
2022/11/19 10:59:49;;;;;;;22.53;13.63;;;;;;;;;;5055287;28;20246;-42
2022/11/19 11:02:21;;;;;;;27.10;16.40;;;;;;;;;;5053996;28;20227;-43
2022/11/19 11:05:07;;;;;;;21.10;12.30;;;;;;;;;;5055038;28;20248;-40
2022/11/19 11:07:51;;;;;;;24.97;14.33;;;;;;;;;;5055209;28;20243;-40
2022/11/19 11:10:44;;;;;;;22.67;13.50;;;;;;;;;;5055288;28;20236;-41
2022/11/19 11:16:25;;;;;;;20.30;13.30;;;;;;;;;;5054698;28;20297;-41
2022/11/19 11:18:53;;;;;;;21.57;13.83;;;;;;;;;;5054343;28;20280;-39
2022/11/19 11:21:28;;;;;;;24.03;14.73;;;;;;;;;;5054927;28;20235;-40
2022/11/19 11:23:55;;;;;;;28.60;16.03;;;;;;;;;;5054464;28;20285;-39
2022/11/19 11:26:25;;;;;;;39.37;19.43;;;;;;;;;;5055094;28;20227;-41
2022/11/19 11:29:23;;;;;;;19.53;13.03;;;;;;;;;;5054216;28;20258;-40
2022/11/19 11:31:49;;;;;;;27.73;15.00;;;;;;;;;;5054265;28;20235;-40
2022/11/19 11:34:26;;;;;;;21.43;13.33;;;;;;;;;;5054569;28;20224;-39
2022/11/19 11:36:53;;;;;;;27.73;17.95;;;;;;;;;;5053569;28;20443;-43
2022/11/19 11:39:43;;;;;;;33.47;17.87;;;;;;;;;;5053920;28;20342;-42
2022/11/19 11:42:16;;;;;;;22.37;13.93;;;;;;;;;;5054461;28;20239;-42
2022/11/19 11:44:52;;;;;;;26.63;15.37;;;;;;;;;;5054302;28;20404;-42
2022/11/19 11:47:22;;;;;;;21.50;13.00;;;;;;;;;;5053539;28;20235;-41
2022/11/19 11:50:14;;;;;;;32.70;17.10;;;;;;;;;;5054426;28;20234;-42
2022/11/19 11:52:50;;;;;;;29.53;15.23;;;;;;;;;;5054016;28;20672;-43
2022/11/19 11:55:23;;;;;;;25.13;14.93;;;;;;;;;;5054382;28;20322;-42
2022/11/19 11:57:57;;;;;;;32.50;17.27;;;;;;;;;;5055033;28;20555;-44
2022/11/19 12:00:31;;;;;;;26.80;16.13;;;;;;;;;;5052348;28;20218;-44
2022/11/19 12:03:12;;;;;;;22.83;13.57;;;;;;;;;;5054235;28;20226;-45
2022/11/19 12:05:53;;;;;;;21.50;12.33;;;;;;;;;;5053418;28;20227;-43
2022/11/19 12:08:33;;;;;;;22.37;14.13;;;;;;;;;;5052918;28;20232;-46
2022/11/19 12:11:09;;;;;;;21.63;13.07;;;;;;;;;;5054311;28;20247;-49
2022/11/19 12:13:46;;;;;;;23.17;13.87;;;;;;;;;;5036679;28;20691;-43
2022/11/19 12:16:24;;;;;;;19.00;12.27;;;;;;;;;;5053401;28;20231;-42
2022/11/19 12:19:09;;;;;;;24.50;12.90;;;;;;;;;;5046728;28;20227;-43
2022/11/19 12:22:01;;;;;;;15.97;9.83;;;;;;;;;;5039773;28;20748;-43
2022/11/19 12:25:02;;;;;;;24.07;12.27;;;;;;;;;;5034028;28;20236;-44
2022/11/19 12:27:37;;;;;;;21.73;11.90;;;;;;;;;;5034227;28;20239;-44
2022/11/19 12:30:14;;;;;;;19.00;12.10;;;;;;;;;;5032415;28;20239;-48
2022/11/19 12:32:49;;;;;;;19.37;12.07;;;;;;;;;;5049710;28;20278;-43
2022/11/19 12:35:44;;;;;;;22.10;12.60;;;;;;;;;;5033875;28;20232;-46
2022/11/19 12:38:34;;;;;;;21.17;11.90;;;;;;;;;;5049387;28;20247;-43
2022/11/19 12:41:12;;;;;;;18.07;12.13;;;;;;;;;;5059375;28;20231;-49
2022/11/19 12:43:57;;;;;;;20.03;12.53;;;;;;;;;;5045492;28;20285;-43
2022/11/19 12:46:52;;;;;;;17.00;12.03;;;;;;;;;;5033681;28;20235;-44
2022/11/19 12:49:46;;;;;;;18.70;11.37;;;;;;;;;;5033697;28;20235;-43
2022/11/19 12:52:30;;;;;;;19.27;11.53;;;;;;;;;;5034553;28;20205;-43
2022/11/19 12:55:17;;;;;;;19.63;12.83;;;;;;;;;;5033644;28;20532;-43
2022/11/19 12:58:09;;;;;;;27.30;14.53;;;;;;;;;;5033719;28;20205;-42
2022/11/19 13:00:37;;;;;;;18.43;11.77;;;;;;;;;;5045109;28;20297;-43
2022/11/19 13:03:07;;;;;;;23.53;13.17;;;;;;;;;;5052804;28;20231;-45
2022/11/19 13:05:50;;;;;;;22.20;12.20;;;;;;;;;;5053305;28;20672;-43
2022/11/19 13:08:35;;;;;;;21.20;13.37;;;;;;;;;;5052258;28;20243;-43
2022/11/19 13:11:20;;;;;;;22.47;12.73;;;;;;;;;;5052492;28;20235;-42
2022/11/19 13:14:04;;;;;;;28.50;13.83;;;;;;;;;;5052559;28;20232;-54
2022/11/19 13:16:32;;;;;;;22.43;13.13;;;;;;;;;;5033807;28;20324;-42
2022/11/19 13:19:14;;;;;;;25.13;14.80;;;;;;;;;;5052940;28;20236;-42
2022/11/19 13:21:52;;;;;;;22.77;13.73;;;;;;;;;;5052637;28;20236;-42
2022/11/19 13:24:27;;;;;;;23.13;14.80;;;;;;;;;;5052863;28;20650;-41
2022/11/19 13:26:58;;;;;;;25.03;14.90;;;;;;;;;;5054004;28;20330;-42
2022/11/19 13:29:41;;;;;;;21.87;13.47;;;;;;;;;;5056725;28;20239;-42
2022/11/19 13:32:33;;;;;;;25.97;14.60;;;;;;;;;;5054225;28;20216;-45
2022/11/19 13:35:10;;;;;;;23.40;13.27;;;;;;;;;;5052082;28;20196;-44
2022/11/19 13:37:42;;;;;;;21.50;13.23;;;;;;;;;;5056072;28;20199;-47
2022/11/19 13:40:38;;;;;;;21.70;13.47;;;;;;;;;;5057903;28;20207;-45
2022/11/19 13:46:22;;;;;;;27.27;14.73;;;;;;;;;;5057255;28;20180;-44
2022/11/19 13:49:02;;;;;;;26.23;14.90;;;;;;;;;;5056470;28;20532;-44
2022/11/19 13:51:43;;;;;;;22.87;14.37;;;;;;;;;;5057543;28;20199;-45
2022/11/19 13:54:20;;;;;;;23.37;14.17;;;;;;;;;;5056492;28;20196;-44
2022/11/19 13:56:49;;;;;;;21.30;13.93;;;;;;;;;;5057460;28;20197;-44
2022/11/19 13:59:27;;;;;;;23.83;14.03;;;;;;;;;;5057438;28;20262;-44
2022/11/19 14:02:08;;;;;;;21.50;14.10;;;;;;;;;;5056724;28;20222;-46
2022/11/19 14:04:59;;;;;;;25.20;14.30;;;;;;;;;;5054486;28;20291;-44
2022/11/19 14:07:56;;;;;;;23.60;14.43;;;;;;;;;;5056812;28;20192;-44
2022/11/19 14:10:31;;;;;;;25.67;14.37;;;;;;;;;;5056347;28;20238;-44
2022/11/19 14:13:04;;;;;;;30.40;16.00;;;;;;;;;;5055864;28;20200;-44
2022/11/19 14:27:28;;;;;;;36.27;17.37;;;;;;;;;;5051023;28;20746;-45
2022/11/19 14:29:58;;;;;;;32.43;16.27;;;;;;;;;;5055303;28;20226;-44
2022/11/19 14:32:34;;;;;;;41.77;19.43;;;;;;;;;;5055133;28;20231;-46
2022/11/19 14:35:01;;;;;;;37.20;19.63;;;;;;;;;;5056264;28;20219;-44
2022/11/19 14:37:46;;;;;;;47.17;26.60;;;;;;;;;;5055362;28;20231;-45
2022/11/19 14:40:25;;;;;;;57.50;31.70;;;;;;;;;;5054451;28;20239;-45
2022/11/19 14:46:05;;;;;;;74.47;34.43;;;;;;;;;;5055945;28;20567;-44
2022/11/19 14:48:34;;;;;;;45.93;22.20;;;;;;;;;;5055338;28;20613;-45
2022/11/19 14:51:08;;;;;;;42.70;23.70;;;;;;;;;;5055683;28;20235;-45
2022/11/19 14:53:36;;;;;;;84.17;39.10;;;;;;;;;;5055337;28;20228;-48
2022/11/19 14:56:11;;;;;;;46.60;26.73;;;;;;;;;;5054223;28;20581;-48
2022/11/19 14:58:38;;;;;;;34.67;20.00;;;;;;;;;;5054997;28;20736;-43
2022/11/19 15:01:07;;;;;;;33.90;18.90;;;;;;;;;;5055389;28;20235;-43
2022/11/19 15:03:36;;;;;;;48.80;26.07;;;;;;;;;;5054283;28;20236;-43
2022/11/19 15:06:05;;;;;;;34.40;19.20;;;;;;;;;;5055147;28;20228;-44
2022/11/19 15:09:00;;;;;;;41.20;21.30;;;;;;;;;;5054915;28;20326;-44
2022/11/19 15:11:55;;;;;;;38.83;20.73;;;;;;;;;;5048132;28;20236;-45
2022/11/19 15:14:28;;;;;;;51.03;25.43;;;;;;;;;;5055153;28;20231;-43
2022/11/19 15:16:57;;;;;;;67.57;27.40;;;;;;;;;;5053306;28;20228;-42
2022/11/19 15:19:59;;;;;;;59.80;25.23;;;;;;;;;;5053085;28;20755;-44
2022/11/19 15:22:34;;;;;;;37.13;18.80;;;;;;;;;;5013948;28;20235;-41
2022/11/19 15:25:19;;;;;;;48.40;21.23;;;;;;;;;;5037492;28;20227;-43
2022/11/19 15:28:01;;;;;;;171.13;68.30;;;;;;;;;;5053780;28;20533;-47